Time;durP1;ratioP1;P1;durP2;ratioP2;P2;SDS_P1;SDS_P2;PMS_P1;PMS_P2;Temp;Humidity;BMP_temperature;BMP_pressure;BME280_temperature;BME280_humidity;BME280_pressure;Samples;Min_cycle;Max_cycle;Signal;HPM_P1;HPM_P2
2021/01/31 00:01:18;;;;;;;6.05;4.20;;;;;;;22.76;35.65;93766.50;4972429;28;20073;-72
2021/01/31 00:03:43;;;;;;;6.53;4.20;;;;;;;22.76;35.68;93755.63;4972199;28;20520;-72
2021/01/31 00:06:09;;;;;;;5.75;4.10;;;;;;;22.74;35.46;93763.59;4972383;28;20035;-72
2021/01/31 00:08:34;;;;;;;6.22;4.13;;;;;;;22.72;35.60;93772.31;4972062;28;20023;-72
2021/01/31 00:11:00;;;;;;;7.10;4.50;;;;;;;22.72;35.49;93787.88;4972452;28;20085;-72
2021/01/31 00:13:26;;;;;;;6.55;4.38;;;;;;;22.72;35.35;93775.03;4972124;28;20026;-72
2021/01/31 00:15:52;;;;;;;7.28;4.50;;;;;;;22.72;35.47;93766.09;4975179;28;20140;-72
2021/01/31 00:18:20;;;;;;;7.00;4.55;;;;;;;22.73;35.41;93773.03;4976519;28;20034;-72
2021/01/31 00:20:46;;;;;;;7.28;4.30;;;;;;;22.55;35.70;93746.78;4976472;28;20030;-72
2021/01/31 00:23:12;;;;;;;6.80;4.45;;;;;;;22.74;35.67;93769.03;4974937;28;20058;-72
2021/01/31 00:25:38;;;;;;;6.60;4.60;;;;;;;22.72;35.51;93782.44;4973729;28;20109;-72
2021/01/31 00:28:04;;;;;;;6.00;4.07;;;;;;;22.71;35.57;93770.84;4972154;28;20081;-72
2021/01/31 00:30:36;;;;;;;7.60;4.80;;;;;;;22.68;35.56;93785.50;4972034;28;20033;-72
2021/01/31 00:33:10;;;;;;;5.82;4.18;;;;;;;22.69;35.61;93778.06;4970798;28;20070;-72
2021/01/31 00:35:37;;;;;;;6.85;4.63;;;;;;;22.68;35.46;93765.75;4970639;28;20030;-72
2021/01/31 00:38:07;;;;;;;7.85;4.72;;;;;;;22.66;35.76;93790.00;4972138;28;20502;-72
2021/01/31 00:40:32;;;;;;;7.88;5.28;;;;;;;22.65;35.49;93769.53;4971976;28;20026;-72
2021/01/31 00:42:58;;;;;;;6.47;4.50;;;;;;;22.63;35.38;93780.19;4971637;28;20031;-73
2021/01/31 00:45:24;;;;;;;6.57;4.43;;;;;;;22.66;35.45;93784.56;4971690;28;20038;-72
2021/01/31 00:47:50;;;;;;;7.32;4.57;;;;;;;22.66;35.56;93784.56;4970113;28;20037;-72
2021/01/31 00:50:26;;;;;;;9.40;5.13;;;;;;;22.67;35.53;93794.22;4971389;28;20027;-72
2021/01/31 00:52:51;;;;;;;6.90;4.72;;;;;;;22.56;35.57;93772.72;4971368;28;20122;-72
2021/01/31 00:55:17;;;;;;;7.55;4.78;;;;;;;22.62;35.65;93784.91;4971390;28;20034;-72
2021/01/31 00:57:42;;;;;;;7.28;4.80;;;;;;;22.60;35.69;93781.25;4971374;28;20026;-72
2021/01/31 01:00:21;;;;;;;6.80;4.45;;;;;;;22.60;35.56;93775.81;4971228;28;20030;-72
2021/01/31 01:02:47;;;;;;;8.13;4.80;;;;;;;22.58;35.64;93764.75;4971096;28;20031;-72
2021/01/31 01:05:13;;;;;;;7.20;4.65;;;;;;;22.57;35.57;93774.16;4970966;28;20520;-72
2021/01/31 01:07:38;;;;;;;7.80;4.85;;;;;;;22.61;35.69;93782.72;4971142;28;20081;-72
2021/01/31 01:10:07;;;;;;;7.40;4.60;;;;;;;22.56;35.55;93764.56;4970149;28;20023;-72
2021/01/31 01:12:32;;;;;;;8.50;5.22;;;;;;;22.61;35.58;93772.56;4971196;28;20023;-72
2021/01/31 01:14:59;;;;;;;7.45;4.82;;;;;;;22.59;35.66;93747.19;4970724;28;20416;-72
2021/01/31 01:17:24;;;;;;;6.85;4.80;;;;;;;22.57;35.77;93745.00;4970538;28;20470;-72
2021/01/31 01:19:49;;;;;;;6.57;4.63;;;;;;;22.57;35.43;93760.56;4971007;28;20023;-73
2021/01/31 01:22:15;;;;;;;7.25;4.90;;;;;;;22.56;35.59;93773.44;4969703;28;20023;-72
2021/01/31 01:24:40;;;;;;;7.25;4.97;;;;;;;22.55;35.80;93768.53;4970913;28;20038;-73
2021/01/31 01:27:06;;;;;;;6.38;4.53;;;;;;;22.53;35.69;93765.63;4970681;28;20118;-72
2021/01/31 01:29:31;;;;;;;7.05;4.68;;;;;;;22.56;35.54;93743.53;4970974;28;20046;-72
2021/01/31 01:31:57;;;;;;;6.90;5.00;;;;;;;22.54;35.71;93756.19;4969441;28;20549;-72
2021/01/31 01:34:22;;;;;;;7.28;5.53;;;;;;;22.55;35.76;93754.94;4969182;28;20023;-72
2021/01/31 01:36:48;;;;;;;7.15;5.10;;;;;;;22.53;35.73;93757.47;4970664;28;20030;-72
2021/01/31 01:39:13;;;;;;;8.93;5.50;;;;;;;22.53;35.87;93771.06;4970675;28;20031;-72
2021/01/31 01:41:44;;;;;;;7.10;4.75;;;;;;;22.46;35.67;93761.56;4970490;28;20035;-72
2021/01/31 01:44:09;;;;;;;8.35;5.32;;;;;;;22.52;35.71;93753.28;4969511;28;20026;-72
2021/01/31 01:46:40;;;;;;;8.15;5.53;;;;;;;22.35;35.71;93733.94;4970430;28;20475;-73
2021/01/31 01:49:25;;;;;;;9.05;5.82;;;;;;;22.53;35.61;93760.19;4968766;28;20061;-72
2021/01/31 01:51:55;;;;;;;8.02;5.20;;;;;;;22.40;35.60;93727.63;4970307;28;20042;-71
2021/01/31 01:54:33;;;;;;;7.83;5.40;;;;;;;22.51;35.72;93746.38;4969402;28;20098;-72
2021/01/31 01:57:01;;;;;;;7.85;5.35;;;;;;;22.51;35.73;93751.81;4969125;28;20488;-72
2021/01/31 01:59:28;;;;;;;8.48;5.20;;;;;;;22.50;35.87;93744.94;4969357;28;20027;-72
2021/01/31 02:02:04;;;;;;;9.45;5.68;;;;;;;22.44;35.82;93741.63;4953314;28;20023;-72
2021/01/31 02:04:30;;;;;;;7.60;5.13;;;;;;;22.40;35.87;93741.22;4969144;28;20051;-73
2021/01/31 02:06:55;;;;;;;8.27;5.30;;;;;;;22.46;35.78;93755.41;4952759;28;20031;-72
2021/01/31 02:09:21;;;;;;;7.70;5.30;;;;;;;22.46;35.93;93739.09;4968659;28;20027;-72
2021/01/31 02:11:46;;;;;;;8.93;5.85;;;;;;;22.49;35.74;93754.34;4970216;28;20018;-72
2021/01/31 02:14:12;;;;;;;8.40;5.57;;;;;;;22.49;35.70;93743.47;4968870;28;20027;-72
2021/01/31 02:16:46;;;;;;;7.90;5.43;;;;;;;22.50;35.72;93744.94;4969988;28;20078;-72
2021/01/31 02:19:34;;;;;;;8.32;5.50;;;;;;;22.49;35.42;93759.78;4970114;28;20415;-72
2021/01/31 02:22:32;;;;;;;8.75;5.47;;;;;;;22.47;35.59;93743.28;4972811;28;20031;-72
2021/01/31 02:25:16;;;;;;;9.00;5.72;;;;;;;22.41;35.90;93767.16;4973872;28;20042;-72
2021/01/31 02:27:50;;;;;;;6.55;5.10;;;;;;;22.33;35.93;93750.06;4973710;28;20030;-72
2021/01/31 02:30:50;;;;;;;9.45;5.93;;;;;;;22.27;35.96;93741.31;4972202;28;20031;-72
2021/01/31 02:33:46;;;;;;;8.27;5.55;;;;;;;22.22;36.14;93734.00;4973959;28;20026;-72
2021/01/31 02:36:46;;;;;;;8.73;5.72;;;;;;;22.18;35.92;93730.13;4972952;28;20053;-72
2021/01/31 02:39:23;;;;;;;8.23;6.10;;;;;;;22.21;36.04;93718.97;4973688;28;20131;-72
2021/01/31 02:41:59;;;;;;;9.98;6.28;;;;;;;22.23;36.00;93721.88;4972607;28;20282;-72
2021/01/31 02:44:25;;;;;;;8.98;6.20;;;;;;;22.23;35.96;93727.31;4972289;28;20564;-72
2021/01/31 02:46:59;;;;;;;7.40;5.20;;;;;;;22.33;35.95;93735.72;4972574;28;20097;-72
2021/01/31 02:49:35;;;;;;;9.10;5.88;;;;;;;22.26;35.88;93730.97;4973572;28;20122;-72
2021/01/31 02:52:07;;;;;;;9.45;5.93;;;;;;;22.38;36.03;93732.88;4972675;28;20109;-72
2021/01/31 02:54:51;;;;;;;8.70;5.40;;;;;;;22.38;35.81;93711.13;4973526;28;20042;-73
2021/01/31 02:57:19;;;;;;;9.48;5.95;;;;;;;22.36;35.77;93708.22;4973554;28;20095;-72
2021/01/31 02:59:55;;;;;;;8.43;5.75;;;;;;;22.38;35.94;93699.53;4972382;28;20097;-72
2021/01/31 03:02:27;;;;;;;9.38;5.68;;;;;;;22.38;35.86;93716.56;4972428;28;20026;-73
2021/01/31 03:05:01;;;;;;;8.05;5.60;;;;;;;22.36;35.93;93729.97;4971564;28;20070;-73
2021/01/31 03:07:30;;;;;;;8.50;5.68;;;;;;;22.35;35.88;93739.38;4972133;28;20022;-73
2021/01/31 03:10:02;;;;;;;8.55;6.15;;;;;;;22.34;35.96;93724.31;4955944;28;20038;-73
2021/01/31 03:12:50;;;;;;;9.32;5.90;;;;;;;22.26;35.88;93698.34;4972098;28;20055;-73
2021/01/31 03:15:18;;;;;;;8.25;5.50;;;;;;;22.35;35.74;93728.50;4971639;28;20508;-73
2021/01/31 03:17:55;;;;;;;9.13;5.82;;;;;;;22.35;35.96;93733.94;4956047;28;20069;-73
2021/01/31 03:20:23;;;;;;;9.10;6.05;;;;;;;22.39;35.76;93685.38;4972819;28;20033;-72
2021/01/31 03:22:54;;;;;;;9.15;6.30;;;;;;;22.36;35.91;93729.97;4973143;28;20060;-72
2021/01/31 03:25:25;;;;;;;9.05;5.70;;;;;;;22.34;35.85;93705.28;4971962;28;20034;-72
2021/01/31 03:27:51;;;;;;;8.35;5.38;;;;;;;22.28;35.78;93710.13;4971735;28;20488;-72
2021/01/31 03:30:17;;;;;;;9.32;5.63;;;;;;;22.33;35.98;93709.28;4971567;28;20081;-75
2021/01/31 03:32:45;;;;;;;8.02;5.97;;;;;;;22.33;35.88;93703.09;4971673;28;20027;-72
2021/01/31 03:35:16;;;;;;;9.55;6.30;;;;;;;22.32;35.90;93702.38;4971668;28;20480;-72
2021/01/31 03:37:53;;;;;;;8.60;5.95;;;;;;;22.34;35.88;93694.41;4971543;28;20098;-72
2021/01/31 03:40:19;;;;;;;9.85;6.03;;;;;;;22.31;35.90;93662.84;4971608;28;20077;-72
2021/01/31 03:42:45;;;;;;;8.07;6.07;;;;;;;22.34;35.82;93678.09;4971620;28;20488;-72
2021/01/31 03:45:11;;;;;;;9.52;5.88;;;;;;;22.34;35.75;93683.53;4972900;28;20027;-72
2021/01/31 03:48:00;;;;;;;9.80;6.30;;;;;;;22.35;35.63;93670.66;4971514;28;20027;-73
2021/01/31 03:50:25;;;;;;;9.38;6.47;;;;;;;22.29;35.93;93662.66;4971333;28;20086;-72
2021/01/31 03:52:50;;;;;;;8.45;5.75;;;;;;;22.33;35.78;93682.09;4972484;28;20467;-72
2021/01/31 03:55:16;;;;;;;8.60;5.63;;;;;;;22.34;35.88;93683.53;4971318;28;20030;-72
2021/01/31 03:57:49;;;;;;;8.57;5.68;;;;;;;22.32;36.00;93688.78;4972439;28;20027;-72
2021/01/31 04:00:19;;;;;;;8.55;5.78;;;;;;;22.33;35.96;93684.81;4971295;28;20488;-72
2021/01/31 04:02:56;;;;;;;8.98;6.30;;;;;;;22.36;35.85;93681.03;4971049;28;20518;-72
2021/01/31 04:05:23;;;;;;;8.70;6.05;;;;;;;22.37;35.93;93674.28;4971156;28;20050;-73
2021/01/31 04:07:49;;;;;;;9.00;6.38;;;;;;;22.38;35.82;93678.47;4970978;28;20127;-72
2021/01/31 04:10:15;;;;;;;9.45;6.22;;;;;;;22.36;35.95;93669.38;4970971;28;20030;-72
2021/01/31 04:12:44;;;;;;;8.25;6.05;;;;;;;22.35;35.91;93679.56;4971080;28;20041;-72
2021/01/31 04:15:13;;;;;;;9.13;6.22;;;;;;;22.33;35.92;93687.53;4972200;28;20554;-71
2021/01/31 04:17:43;;;;;;;8.20;5.82;;;;;;;22.35;36.01;93679.56;4970933;28;20031;-72
2021/01/31 04:20:09;;;;;;;9.83;5.90;;;;;;;22.32;35.80;93680.63;4971054;28;20045;-72
2021/01/31 04:22:34;;;;;;;8.40;6.20;;;;;;;22.34;35.88;93683.53;4971640;28;20282;-72
2021/01/31 04:25:00;;;;;;;9.20;6.13;;;;;;;22.33;35.97;93671.22;4972407;28;20119;-72
2021/01/31 04:27:25;;;;;;;8.18;5.63;;;;;;;22.34;35.91;93672.66;4972072;28;20053;-72
2021/01/31 04:29:50;;;;;;;9.45;6.28;;;;;;;22.35;35.75;93663.22;4971874;28;20062;-72
2021/01/31 04:32:16;;;;;;;9.45;6.57;;;;;;;22.28;36.09;93642.16;4971607;28;20027;-72
2021/01/31 04:34:41;;;;;;;9.15;6.35;;;;;;;22.32;35.80;93653.41;4971849;28;20030;-71
2021/01/31 04:37:07;;;;;;;9.98;6.38;;;;;;;22.33;35.88;93641.28;4971703;28;20038;-71
2021/01/31 04:39:32;;;;;;;9.00;6.03;;;;;;;22.32;35.82;93628.94;4970682;28;20030;-72
2021/01/31 04:41:58;;;;;;;8.43;5.82;;;;;;;22.30;35.90;93622.56;4971479;28;20039;-71
2021/01/31 04:44:23;;;;;;;9.18;6.25;;;;;;;22.30;35.77;93617.88;4970223;28;20033;-72
2021/01/31 04:46:55;;;;;;;9.15;6.00;;;;;;;22.22;35.90;93605.50;4969864;28;20057;-71
2021/01/31 04:49:39;;;;;;;8.77;6.63;;;;;;;22.31;35.90;93619.31;4970252;28;20061;-71
2021/01/31 04:52:29;;;;;;;9.90;6.18;;;;;;;22.34;35.68;93645.44;4971514;28;20038;-72
2021/01/31 04:55:27;;;;;;;8.32;5.80;;;;;;;22.33;35.85;93654.88;4971373;28;20038;-72
2021/01/31 04:58:04;;;;;;;8.27;5.50;;;;;;;22.33;35.79;93654.88;4962912;28;20034;-72
2021/01/31 05:00:29;;;;;;;8.23;5.55;;;;;;;22.33;35.63;93638.56;4970463;28;20027;-72
2021/01/31 05:02:56;;;;;;;9.40;6.13;;;;;;;22.31;35.86;93662.84;4969860;28;20026;-72
2021/01/31 05:05:49;;;;;;;9.25;5.90;;;;;;;22.29;35.84;93654.50;4969953;28;20053;-72
2021/01/31 05:08:19;;;;;;;7.80;5.45;;;;;;;22.20;36.19;93646.78;4969661;28;20116;-72
2021/01/31 05:10:45;;;;;;;9.13;5.70;;;;;;;22.28;35.73;93669.34;4970063;28;20546;-72
2021/01/31 05:13:15;;;;;;;9.32;6.13;;;;;;;22.29;35.73;93654.50;4969700;28;20074;-71
2021/01/31 05:16:14;;;;;;;8.38;5.75;;;;;;;22.27;35.86;93657.03;4970045;28;20027;-72
2021/01/31 05:18:43;;;;;;;7.88;5.70;;;;;;;22.31;35.67;93641.06;4985812;28;20551;-72
2021/01/31 05:21:09;;;;;;;7.97;5.53;;;;;;;22.29;35.99;93635.47;4969667;28;20027;-72
2021/01/31 05:23:40;;;;;;;8.48;5.97;;;;;;;22.30;35.83;93636.91;4969489;28;20022;-72
2021/01/31 05:26:06;;;;;;;8.63;5.65;;;;;;;22.29;35.82;93643.63;4963556;28;20078;-72
2021/01/31 05:28:32;;;;;;;8.23;5.70;;;;;;;22.29;35.74;93643.63;4951539;28;20085;-72
2021/01/31 05:30:57;;;;;;;7.88;5.45;;;;;;;22.25;35.92;93648.66;4966240;28;20031;-71
2021/01/31 05:33:22;;;;;;;8.35;5.60;;;;;;;22.28;36.00;93641.44;4966191;28;20035;-72
2021/01/31 05:36:12;;;;;;;8.25;5.97;;;;;;;22.27;35.97;93645.41;4951672;28;20515;-72
2021/01/31 05:38:43;;;;;;;8.77;5.13;;;;;;;22.29;35.74;93645.63;4953621;28;20046;-72
2021/01/31 05:41:28;;;;;;;8.25;5.45;;;;;;;22.35;35.86;93646.91;4950124;29;20031;-73
2021/01/31 05:43:57;;;;;;;11.88;5.68;;;;;;;22.38;35.67;93640.41;4940123;29;20216;-74
2021/01/31 05:46:24;;;;;;;8.07;5.88;;;;;;;22.41;35.74;93650.94;4947331;29;20027;-78
2021/01/31 05:48:50;;;;;;;6.93;5.32;;;;;;;22.43;35.83;93644.97;4951061;29;20055;-74
2021/01/31 05:51:16;;;;;;;7.85;5.22;;;;;;;22.41;36.06;93655.66;4934893;29;20083;-76
2021/01/31 05:53:41;;;;;;;7.72;5.15;;;;;;;22.45;36.08;93675.06;4949510;28;20081;-72
2021/01/31 05:56:13;;;;;;;7.88;5.15;;;;;;;22.45;35.78;93669.63;4946448;29;20553;-75
2021/01/31 05:58:38;;;;;;;7.80;5.40;;;;;;;22.46;36.09;93662.94;4949733;28;20057;-72
2021/01/31 06:01:09;;;;;;;7.57;5.65;;;;;;;22.47;36.07;93664.41;4964688;28;20027;-73
2021/01/31 06:03:34;;;;;;;7.40;5.43;;;;;;;22.47;35.98;93680.72;4948750;28;20130;-72
2021/01/31 06:06:13;;;;;;;7.68;5.25;;;;;;;22.47;35.88;93661.69;4950138;28;20038;-80
2021/01/31 06:08:41;;;;;;;7.20;5.47;;;;;;;22.56;36.04;93674.78;4948063;28;20031;-71
2021/01/31 06:11:09;;;;;;;7.35;5.30;;;;;;;22.47;35.98;93661.69;4963570;28;20427;-70
2021/01/31 06:13:35;;;;;;;8.65;5.38;;;;;;;22.47;35.89;93664.41;4947940;29;20106;-71
2021/01/31 06:16:02;;;;;;;8.80;5.43;;;;;;;22.58;35.76;93685.84;4947464;28;20102;-71
2021/01/31 06:18:35;;;;;;;8.60;5.50;;;;;;;22.54;36.02;93697.09;4963376;28;20039;-72
2021/01/31 06:21:18;;;;;;;7.20;4.95;;;;;;;22.42;35.91;93689.75;4949196;29;20106;-74
2021/01/31 06:23:48;;;;;;;8.18;5.22;;;;;;;22.42;36.48;93698.63;4964398;28;20038;-73
2021/01/31 06:26:25;;;;;;;7.22;5.20;;;;;;;22.26;36.23;93682.75;4948992;28;20319;-73
2021/01/31 06:28:52;;;;;;;7.15;5.07;;;;;;;22.30;36.35;93704.91;4949008;28;20026;-71
2021/01/31 06:31:24;;;;;;;8.30;5.43;;;;;;;22.18;36.55;93700.97;4946680;29;20054;-76
2021/01/31 06:33:50;;;;;;;7.50;5.00;;;;;;;22.18;36.51;93702.94;4931926;29;20027;-76
2021/01/31 06:36:17;;;;;;;7.68;5.10;;;;;;;22.31;36.37;93717.22;4948582;29;20700;-75
2021/01/31 06:38:48;;;;;;;8.20;5.43;;;;;;;22.37;36.28;93698.78;4947574;29;20097;-73
2021/01/31 06:41:46;;;;;;;8.00;5.18;;;;;;;22.44;36.02;93692.66;4948688;28;20117;-71
2021/01/31 06:44:24;;;;;;;6.57;4.68;;;;;;;22.42;36.08;93697.91;4960798;28;20046;-74
2021/01/31 06:46:58;;;;;;;7.65;5.10;;;;;;;22.55;35.87;93719.56;4947390;29;20020;-72
2021/01/31 06:50:05;;;;;;;6.75;5.03;;;;;;;22.46;36.03;93695.56;4950104;28;20035;-73
2021/01/31 06:52:44;;;;;;;7.68;5.03;;;;;;;22.52;36.00;93709.75;4947211;29;20536;-72
2021/01/31 06:55:42;;;;;;;7.15;4.60;;;;;;;22.54;36.33;93718.09;4933549;29;20019;-71
2021/01/31 06:58:16;;;;;;;6.43;4.68;;;;;;;22.58;36.07;93740.25;4950638;28;20462;-75
2021/01/31 07:01:12;;;;;;;7.65;5.07;;;;;;;22.63;36.07;93742.09;4951069;28;20030;-73
2021/01/31 07:03:49;;;;;;;7.40;4.97;;;;;;;22.62;36.07;93752.28;4950859;28;20043;-76
2021/01/31 07:06:42;;;;;;;6.97;4.93;;;;;;;22.67;35.93;93737.06;4950964;28;20034;-73
2021/01/31 07:09:19;;;;;;;6.13;4.60;;;;;;;22.66;36.01;93727.44;4953957;28;20436;-77
2021/01/31 07:11:55;;;;;;;6.47;4.60;;;;;;;22.81;35.92;93743.84;4952499;28;20019;-74
2021/01/31 07:14:35;;;;;;;6.47;4.75;;;;;;;22.77;35.81;93732.59;4952494;28;20115;-76
2021/01/31 07:17:02;;;;;;;7.05;5.10;;;;;;;22.95;35.49;93727.63;4953368;28;20547;-75
2021/01/31 07:19:30;;;;;;;6.75;4.35;;;;;;;23.01;35.58;93733.66;4951778;28;20038;-71
2021/01/31 07:21:58;;;;;;;7.60;4.63;;;;;;;23.09;35.23;93745.31;4966494;28;20023;-73
2021/01/31 07:24:34;;;;;;;7.97;5.20;;;;;;;23.14;35.27;93747.16;4953412;28;20038;-79
2021/01/31 07:27:11;;;;;;;6.93;4.80;;;;;;;23.23;34.99;93757.56;4937245;29;20172;-75
2021/01/31 07:30:00;;;;;;;8.13;5.13;;;;;;;23.29;34.48;93752.69;4953015;28;20035;-80
2021/01/31 07:32:27;;;;;;;7.18;4.70;;;;;;;23.44;35.08;93755.47;4955483;28;20488;-83
2021/01/31 07:35:03;;;;;;;7.43;4.60;;;;;;;23.51;34.67;93730.22;4937688;29;20472;-78
2021/01/31 07:37:29;;;;;;;6.80;4.70;;;;;;;23.62;34.65;93724.44;4935749;29;20027;-76
2021/01/31 07:40:02;;;;;;;7.00;4.75;;;;;;;23.70;34.34;93734.13;4950796;29;20087;-75
2021/01/31 07:42:28;;;;;;;7.45;5.38;;;;;;;23.74;33.99;93731.78;4949323;28;20031;-76
2021/01/31 07:45:01;;;;;;;7.40;4.97;;;;;;;23.79;34.01;93711.06;4934808;29;20125;-74
2021/01/31 07:47:26;;;;;;;7.45;4.55;;;;;;;23.86;33.90;93732.16;4946864;29;20054;-76
2021/01/31 07:49:55;;;;;;;6.43;4.78;;;;;;;23.95;34.11;93741.25;4964663;28;20497;-75
2021/01/31 07:52:23;;;;;;;6.15;4.47;;;;;;;24.02;34.22;93735.09;4943409;28;20035;-76
2021/01/31 07:54:49;;;;;;;6.43;4.63;;;;;;;24.13;34.09;93729.28;4950343;28;20413;-74
2021/01/31 07:57:23;;;;;;;6.20;4.45;;;;;;;24.16;33.87;93739.09;4930602;29;20035;-73
2021/01/31 07:59:48;;;;;;;7.05;4.72;;;;;;;24.22;33.48;93741.66;4952206;29;20053;-73
2021/01/31 08:02:35;;;;;;;6.35;4.93;;;;;;;24.31;33.27;93739.09;4953068;28;20495;-77
2021/01/31 08:05:01;;;;;;;7.93;5.20;;;;;;;24.25;33.45;93719.47;4949639;28;20054;-71
2021/01/31 08:08:17;;;;;;;5.68;4.38;;;;;;;24.37;33.38;93737.66;4948715;28;20027;-71
2021/01/31 08:10:46;;;;;;;6.68;5.25;;;;;;;24.41;33.77;93738.03;4942488;29;20047;-74
2021/01/31 08:13:33;;;;;;;7.53;5.43;;;;;;;24.43;33.43;93740.22;4946035;29;20031;-75
2021/01/31 08:15:59;;;;;;;7.85;5.15;;;;;;;24.54;33.51;93739.84;4944827;28;20077;-71
2021/01/31 08:18:24;;;;;;;7.30;5.00;;;;;;;24.63;33.40;93726.38;4946494;28;20019;-78
2021/01/31 08:20:50;;;;;;;7.10;5.20;;;;;;;24.71;32.84;93718.16;4946684;29;20019;-74
2021/01/31 08:23:30;;;;;;;7.07;5.00;;;;;;;24.77;33.24;93724.16;4944144;29;20051;-68
2021/01/31 08:26:00;;;;;;;7.55;4.85;;;;;;;24.77;32.79;93729.63;4951709;28;20089;-70
2021/01/31 08:28:35;;;;;;;6.55;5.20;;;;;;;24.82;32.80;93726.00;4952026;28;20031;-69
2021/01/31 08:31:13;;;;;;;7.82;5.15;;;;;;;24.81;32.88;93714.31;4952166;28;20036;-71
2021/01/31 08:33:43;;;;;;;8.18;5.55;;;;;;;24.84;33.32;93719.44;4952147;28;20039;-69
2021/01/31 08:36:09;;;;;;;6.93;5.18;;;;;;;24.93;32.93;93716.13;4934751;29;20496;-70
2021/01/31 08:38:35;;;;;;;6.95;4.78;;;;;;;24.93;32.82;93705.22;4951078;29;20045;-75
2021/01/31 08:41:04;;;;;;;6.72;5.13;;;;;;;24.97;32.90;93721.94;4963646;28;20420;-74
2021/01/31 08:43:39;;;;;;;7.72;5.18;;;;;;;24.98;33.30;93720.66;4949963;29;20476;-75
2021/01/31 08:46:07;;;;;;;7.70;5.30;;;;;;;24.99;32.76;93722.16;4951037;29;20122;-76
2021/01/31 08:48:33;;;;;;;6.57;4.95;;;;;;;25.05;32.85;93717.22;4950030;28;20422;-74
2021/01/31 08:51:18;;;;;;;7.80;5.38;;;;;;;25.04;33.03;93720.50;4952042;29;20019;-75
2021/01/31 08:53:43;;;;;;;6.55;4.93;;;;;;;24.96;33.06;93715.03;4949783;29;20055;-74
2021/01/31 08:56:24;;;;;;;7.40;5.30;;;;;;;25.01;32.81;93716.84;4949903;29;20503;-74
2021/01/31 08:58:49;;;;;;;7.57;5.50;;;;;;;25.11;32.67;93739.59;4950572;29;20027;-74
2021/01/31 09:01:15;;;;;;;7.20;5.05;;;;;;;25.12;32.43;93741.03;4934425;29;20023;-75
2021/01/31 09:03:43;;;;;;;7.90;5.47;;;;;;;25.18;32.15;93735.38;4951348;28;20496;-75
2021/01/31 09:06:09;;;;;;;7.80;5.53;;;;;;;25.15;32.45;93744.69;4949694;29;20035;-70
2021/01/31 09:08:36;;;;;;;7.68;5.75;;;;;;;25.16;32.91;93741.41;4949716;29;20051;-70
2021/01/31 09:11:05;;;;;;;8.73;5.75;;;;;;;25.19;32.43;93725.91;4950319;29;20023;-70
2021/01/31 09:13:32;;;;;;;7.45;5.80;;;;;;;25.17;32.59;93740.13;4955312;28;20382;-70
2021/01/31 09:16:23;;;;;;;8.50;5.45;;;;;;;25.13;32.50;93742.50;4955108;29;20046;-70
2021/01/31 09:19:22;;;;;;;10.23;5.63;;;;;;;25.24;32.87;93750.28;4955207;28;20038;-70
2021/01/31 09:21:49;;;;;;;7.97;5.55;;;;;;;25.12;32.62;93757.44;4955062;29;20082;-69
2021/01/31 09:24:15;;;;;;;7.78;6.20;;;;;;;25.24;32.57;93758.50;4966222;28;20500;-71
2021/01/31 09:27:10;;;;;;;8.45;5.68;;;;;;;25.29;32.91;93751.38;4948586;29;20027;-71
2021/01/31 09:29:35;;;;;;;11.38;6.05;;;;;;;25.26;32.95;93761.41;4959392;28;21445;-70
2021/01/31 09:32:09;;;;;;;8.63;5.43;;;;;;;25.32;33.48;93764.69;4948827;29;20042;-71
2021/01/31 09:34:35;;;;;;;7.80;5.55;;;;;;;25.26;33.64;93758.69;4964231;28;20104;-71
2021/01/31 09:37:19;;;;;;;9.48;6.10;;;;;;;25.26;33.53;93758.69;4949281;29;20492;-71
2021/01/31 09:39:44;;;;;;;6.63;5.78;;;;;;;25.19;33.78;93759.44;4962642;28;20023;-70
2021/01/31 09:42:10;;;;;;;7.35;5.50;;;;;;;25.24;34.15;93744.81;4966542;28;20023;-71
2021/01/31 09:44:35;;;;;;;9.15;6.35;;;;;;;25.30;33.76;93759.00;4949700;28;20027;-71
2021/01/31 09:47:02;;;;;;;8.20;5.85;;;;;;;25.32;33.78;93756.47;4964896;28;20497;-70
2021/01/31 09:49:28;;;;;;;8.07;6.15;;;;;;;25.34;33.99;93748.44;4964034;28;20019;-70
2021/01/31 09:52:03;;;;;;;8.57;5.80;;;;;;;25.38;33.82;93756.97;4949920;28;20876;-71
2021/01/31 09:54:30;;;;;;;9.52;6.05;;;;;;;25.40;34.25;93746.94;4963573;28;20023;-71
2021/01/31 09:56:56;;;;;;;9.70;6.10;;;;;;;25.44;33.96;93735.63;4949480;29;20058;-71
2021/01/31 09:59:35;;;;;;;8.38;5.97;;;;;;;25.43;34.49;93734.19;4950521;28;20369;-70
2021/01/31 10:02:10;;;;;;;8.77;5.88;;;;;;;25.41;34.80;93742.19;4949811;29;20407;-71
2021/01/31 10:04:37;;;;;;;8.30;5.97;;;;;;;25.29;34.24;93735.72;4950337;28;20043;-70
2021/01/31 10:07:07;;;;;;;9.32;6.78;;;;;;;25.34;34.60;93732.03;4934199;29;20043;-70
2021/01/31 10:09:35;;;;;;;7.80;5.90;;;;;;;25.35;34.34;93728.00;4949707;28;20523;-72
2021/01/31 10:12:29;;;;;;;9.70;6.43;;;;;;;25.42;34.28;93727.25;4949091;28;20275;-79
2021/01/31 10:14:54;;;;;;;12.55;7.97;;;;;;;25.32;33.26;93729.16;4949405;28;20027;-71
2021/01/31 10:17:29;;;;;;;9.75;6.85;;;;;;;25.35;33.95;93722.56;4949853;29;20023;-71
2021/01/31 10:20:26;;;;;;;9.50;6.57;;;;;;;25.42;33.97;93710.88;4949745;29;20038;-73
2021/01/31 10:22:55;;;;;;;11.32;6.50;;;;;;;25.44;33.85;93714.50;4950181;29;20069;-71
2021/01/31 10:25:21;;;;;;;10.05;6.75;;;;;;;25.30;34.03;93698.91;4949573;28;20031;-71
2021/01/31 10:27:48;;;;;;;9.25;6.65;;;;;;;25.51;33.68;93702.06;4948744;29;20091;-72
2021/01/31 10:30:24;;;;;;;10.05;6.82;;;;;;;25.48;33.89;93703.19;4949820;28;20016;-72
2021/01/31 10:32:49;;;;;;;10.85;6.82;;;;;;;25.51;33.48;93696.59;4950275;28;20047;-71
2021/01/31 10:35:37;;;;;;;10.38;7.10;;;;;;;25.45;33.53;93698.81;4949666;28;20024;-72
2021/01/31 10:38:25;;;;;;;11.20;7.50;;;;;;;25.51;33.48;93702.78;4949004;29;20027;-71
2021/01/31 10:40:50;;;;;;;11.13;6.80;;;;;;;25.50;33.37;93684.22;4948624;28;20381;-72
2021/01/31 10:43:18;;;;;;;11.77;7.30;;;;;;;25.54;33.06;93690.75;4954473;28;20024;-74
2021/01/31 10:45:43;;;;;;;11.40;7.35;;;;;;;25.58;33.30;93684.91;4953476;28;20038;-72
2021/01/31 10:48:09;;;;;;;10.90;7.03;;;;;;;25.56;33.35;93696.41;4952445;28;20027;-71
2021/01/31 10:50:34;;;;;;;10.98;7.65;;;;;;;25.55;33.26;93691.50;4953369;28;20027;-70
2021/01/31 10:53:00;;;;;;;10.45;7.38;;;;;;;25.53;33.25;93688.56;4952775;28;20125;-71
2021/01/31 10:55:26;;;;;;;9.60;7.10;;;;;;;25.46;32.96;93683.88;4953984;28;20035;-71
2021/01/31 10:57:51;;;;;;;11.32;7.00;;;;;;;25.43;33.07;93679.53;4953794;28;20062;-69
2021/01/31 11:00:17;;;;;;;11.68;7.70;;;;;;;25.42;33.21;93678.06;4953918;28;20015;-71
2021/01/31 11:02:42;;;;;;;10.98;8.00;;;;;;;25.30;32.94;93660.63;4953650;28;20059;-71
2021/01/31 11:05:08;;;;;;;11.95;7.60;;;;;;;25.21;33.33;93685.09;4953127;28;20054;-72
2021/01/31 11:07:34;;;;;;;12.55;7.78;;;;;;;25.28;33.36;93684.34;4953960;28;20069;-70
2021/01/31 11:09:59;;;;;;;12.05;8.13;;;;;;;25.23;33.37;93677.81;4953937;28;20020;-72
2021/01/31 11:12:25;;;;;;;10.75;7.28;;;;;;;25.19;33.58;93672.00;4952268;28;20122;-71
2021/01/31 11:14:52;;;;;;;11.77;7.65;;;;;;;25.13;33.56;93668.72;4952129;29;20110;-70
2021/01/31 11:17:17;;;;;;;11.00;7.28;;;;;;;25.04;33.38;93666.59;4951918;28;20114;-71
2021/01/31 11:19:42;;;;;;;13.63;7.75;;;;;;;24.96;33.61;93665.88;4952486;28;20489;-71
2021/01/31 11:22:08;;;;;;;10.98;7.80;;;;;;;24.93;33.81;93660.75;4951295;29;20031;-70
2021/01/31 11:24:33;;;;;;;12.80;7.47;;;;;;;24.85;33.84;93655.31;4953085;28;20094;-71
2021/01/31 11:27:00;;;;;;;12.57;7.82;;;;;;;24.79;33.84;93662.28;4953349;28;20118;-71
2021/01/31 11:29:25;;;;;;;11.32;7.78;;;;;;;24.76;34.04;93662.66;4951716;28;20031;-71
2021/01/31 11:31:51;;;;;;;10.68;7.50;;;;;;;24.73;33.89;93663.75;4951286;28;20035;-71
2021/01/31 11:34:16;;;;;;;10.98;7.68;;;;;;;24.67;33.90;93650.28;4952373;28;20037;-71
2021/01/31 11:36:42;;;;;;;12.05;7.70;;;;;;;24.65;33.91;93657.56;4951573;28;20532;-70
2021/01/31 11:39:08;;;;;;;13.30;7.80;;;;;;;24.63;33.99;93644.47;4953276;28;20469;-71
2021/01/31 11:41:35;;;;;;;11.57;7.07;;;;;;;24.54;34.41;93657.97;4956075;28;20022;-71
2021/01/31 11:44:00;;;;;;;11.73;7.95;;;;;;;24.44;34.58;93643.44;4971538;28;20038;-72
2021/01/31 11:46:26;;;;;;;14.18;8.35;;;;;;;24.43;34.21;93639.25;4972154;28;20035;-72
2021/01/31 11:48:51;;;;;;;15.80;7.55;;;;;;;24.41;34.83;93628.16;4968533;28;20042;-72
2021/01/31 11:51:17;;;;;;;11.38;7.95;;;;;;;24.35;34.63;93633.81;4952803;29;20392;-72